createdAt,value
2023-01-09T00:01:23.480Z,0.67
2023-01-09T00:03:51.688Z,0.63
2023-01-09T00:06:20.956Z,0.67
2023-01-09T00:08:48.841Z,0.80
2023-01-09T00:11:16.944Z,0.47
2023-01-09T00:13:45.178Z,1.07
2023-01-09T00:16:13.031Z,0.40
2023-01-09T00:18:41.239Z,0.40
2023-01-09T00:21:10.493Z,0.50
2023-01-09T00:23:40.063Z,0.40
2023-01-09T00:26:09.493Z,0.60
2023-01-09T00:28:38.101Z,0.50
2023-01-09T00:31:07.895Z,0.60
2023-01-09T00:33:39.864Z,0.40
2023-01-09T00:36:08.471Z,0.43
2023-01-09T00:38:37.225Z,0.40
2023-01-09T00:41:09.025Z,0.43
2023-01-09T00:43:40.133Z,0.53
2023-01-09T00:46:09.242Z,0.50
2023-01-09T00:48:39.820Z,0.53
2023-01-09T00:51:08.894Z,0.40
2023-01-09T00:53:40.350Z,0.60
2023-01-09T00:56:15.972Z,0.43
2023-01-09T00:58:44.383Z,0.47
2023-01-09T01:01:13.000Z,0.40
2023-01-09T01:03:41.025Z,0.50
2023-01-09T01:06:26.802Z,0.40
2023-01-09T01:08:55.759Z,0.50
2023-01-09T01:11:25.328Z,0.40
2023-01-09T01:13:53.956Z,0.40
2023-01-09T01:16:21.878Z,0.40
2023-01-09T01:18:50.490Z,0.50
2023-01-09T01:21:18.973Z,0.70
2023-01-09T01:23:46.831Z,0.50
2023-01-09T01:26:20.302Z,0.40
2023-01-09T01:28:49.532Z,0.50
2023-01-09T01:31:18.650Z,0.40
2023-01-09T01:33:46.944Z,0.43
2023-01-09T01:36:16.178Z,0.40
2023-01-09T01:38:44.574Z,0.50
2023-01-09T01:41:12.419Z,0.50
2023-01-09T01:43:52.637Z,0.63
2023-01-09T01:46:20.814Z,0.50
2023-01-09T01:48:51.397Z,0.50
2023-01-09T01:51:21.723Z,0.50
2023-01-09T01:53:52.430Z,0.50
2023-01-09T01:56:24.482Z,0.60
2023-01-09T01:58:57.585Z,0.53
2023-01-09T02:01:26.743Z,0.60
2023-01-09T02:03:58.203Z,0.40
2023-01-09T02:06:26.890Z,0.40
2023-01-09T02:08:55.084Z,0.50
2023-01-09T02:11:23.083Z,0.60
2023-01-09T02:13:51.140Z,0.50
2023-01-09T02:16:34.253Z,0.50
2023-01-09T02:19:11.905Z,0.40
2023-01-09T02:21:51.317Z,0.43
2023-01-09T02:24:40.680Z,0.47
2023-01-09T02:27:37.931Z,0.50
2023-01-09T02:30:23.579Z,0.37
2023-01-09T02:33:02.351Z,0.50
2023-01-09T02:35:42.764Z,0.50
2023-01-09T02:38:20.478Z,0.53
2023-01-09T02:40:54.843Z,0.50
2023-01-09T02:43:23.424Z,0.40
2023-01-09T02:45:52.736Z,0.40
2023-01-09T02:48:21.126Z,0.40
2023-01-09T02:50:55.018Z,0.50
2023-01-09T02:54:04.799Z,0.50
2023-01-09T02:56:59.423Z,0.70
2023-01-09T02:59:33.813Z,0.50
2023-01-09T03:02:23.499Z,0.50
2023-01-09T03:05:00.636Z,0.50
2023-01-09T03:07:34.218Z,0.50
2023-01-09T03:10:11.613Z,0.50
2023-01-09T03:12:40.626Z,0.50
2023-01-09T03:15:14.240Z,0.40
2023-01-09T03:17:48.507Z,0.50
2023-01-09T03:20:20.287Z,0.60
2023-01-09T03:22:55.505Z,0.50
2023-01-09T03:25:24.170Z,0.50
2023-01-09T03:27:55.458Z,0.50
2023-01-09T03:30:23.520Z,0.40
2023-01-09T03:32:53.065Z,0.40
2023-01-09T03:35:21.297Z,0.57
2023-01-09T03:37:49.315Z,0.60
2023-01-09T03:40:17.839Z,0.80
2023-01-09T03:42:45.775Z,1.03
2023-01-09T03:45:14.360Z,0.60
2023-01-09T03:47:42.295Z,0.80
2023-01-09T03:50:12.720Z,0.70
2023-01-09T03:52:41.337Z,0.70
2023-01-09T03:55:10.046Z,0.40
2023-01-09T03:57:38.399Z,0.50
2023-01-09T04:00:08.655Z,0.60
2023-01-09T04:02:36.728Z,0.50
2023-01-09T04:05:04.949Z,0.50
2023-01-09T04:07:34.516Z,0.70
2023-01-09T04:10:02.499Z,0.43
2023-01-09T04:12:30.553Z,0.40
2023-01-09T04:14:58.661Z,0.70
2023-01-09T04:17:26.615Z,0.50
2023-01-09T04:19:54.638Z,0.60
2023-01-09T04:22:22.560Z,0.53
2023-01-09T04:24:51.934Z,0.50
2023-01-09T04:27:20.000Z,1.10
2023-01-09T04:29:48.082Z,0.83
2023-01-09T04:32:16.149Z,0.70
2023-01-09T04:34:44.274Z,0.93
2023-01-09T04:37:12.472Z,0.57
2023-01-09T04:39:41.710Z,0.50
2023-01-09T04:42:11.553Z,0.60
2023-01-09T04:44:39.617Z,0.60
2023-01-09T04:47:08.130Z,0.50
2023-01-09T04:49:36.329Z,0.70
2023-01-09T04:52:04.328Z,0.50
2023-01-09T04:54:32.358Z,0.50
2023-01-09T04:57:00.385Z,0.63
2023-01-09T04:59:29.808Z,0.60
2023-01-09T05:01:58.446Z,0.40
2023-01-09T05:04:28.803Z,0.60
2023-01-09T05:06:56.778Z,0.40
2023-01-09T05:09:24.697Z,0.57
2023-01-09T05:11:52.666Z,0.40
2023-01-09T05:14:20.966Z,0.50
2023-01-09T05:16:50.135Z,0.60
2023-01-09T05:19:18.084Z,0.40
2023-01-09T05:21:46.015Z,0.60
2023-01-09T05:24:13.911Z,0.50
2023-01-09T05:26:41.865Z,0.40
2023-01-09T05:29:10.784Z,0.73
2023-01-09T05:31:38.775Z,0.60
2023-01-09T05:34:08.120Z,0.70
2023-01-09T05:36:36.133Z,0.73
2023-01-09T05:39:04.011Z,0.80
2023-01-09T05:41:31.948Z,0.50
2023-01-09T05:44:00.062Z,0.80
2023-01-09T05:46:28.427Z,0.70
2023-01-09T05:48:56.432Z,0.50
2023-01-09T05:51:26.014Z,1.30
2023-01-09T05:53:55.038Z,0.50
2023-01-09T05:56:23.375Z,0.60
2023-01-09T05:58:51.829Z,1.10
2023-01-09T06:01:21.274Z,1.23
2023-01-09T06:03:50.204Z,1.23
2023-01-09T06:06:18.429Z,0.83
2023-01-09T06:08:50.945Z,1.63
2023-01-09T06:11:19.061Z,0.70
2023-01-09T12:27:18.997Z,1.20
2023-01-09T19:27:43.839Z,2.10
2023-01-09T19:30:13.233Z,1.47
2023-01-09T19:32:41.558Z,1.60
2023-01-09T19:35:10.243Z,2.20
2023-01-09T19:37:39.231Z,1.53
2023-01-09T19:40:08.177Z,1.60
2023-01-09T19:42:36.298Z,2.03
2023-01-09T19:45:07.018Z,1.90
2023-01-09T19:47:36.977Z,2.00
2023-01-09T19:50:08.227Z,4.10
2023-01-09T19:52:38.382Z,2.90
2023-01-09T19:55:07.828Z,3.40
2023-01-09T19:57:35.840Z,2.23
2023-01-09T20:00:05.782Z,2.80
2023-01-09T20:02:33.674Z,2.97
2023-01-09T20:05:01.538Z,2.70
2023-01-09T20:07:29.651Z,4.33
2023-01-09T20:09:57.516Z,2.90
2023-01-09T20:12:25.332Z,3.03
2023-01-09T20:14:53.795Z,2.13
2023-01-09T20:17:23.119Z,10.07
2023-01-09T20:19:53.225Z,4.30
2023-01-09T20:22:21.237Z,3.40
2023-01-09T20:24:49.223Z,3.90
2023-01-09T20:27:17.343Z,2.47
2023-01-09T20:29:45.709Z,3.20
2023-01-09T20:32:14.603Z,1.80
2023-01-09T20:34:43.973Z,1.60
2023-01-09T20:37:12.597Z,1.87
2023-01-09T20:39:40.909Z,1.77
2023-01-09T20:42:08.955Z,2.00
2023-01-09T20:44:37.551Z,3.30
2023-01-09T20:47:05.770Z,1.80
2023-01-09T20:49:33.837Z,1.30
2023-01-09T20:52:04.068Z,3.60
2023-01-09T20:54:32.811Z,2.30
2023-01-09T20:57:01.093Z,3.50
2023-01-09T20:59:29.266Z,1.73
2023-01-09T21:01:57.257Z,3.30
2023-01-09T21:04:25.443Z,2.40
2023-01-09T21:06:53.688Z,1.00
2023-01-09T21:09:25.216Z,1.23
2023-01-09T21:11:53.194Z,1.30
2023-01-09T21:14:21.433Z,1.10
2023-01-09T21:16:54.684Z,1.03
2023-01-09T21:19:23.594Z,1.20
2023-01-09T21:21:53.269Z,1.30
2023-01-09T21:24:23.626Z,1.10
2023-01-09T21:26:51.915Z,1.37
2023-01-09T21:29:21.224Z,1.10
2023-01-09T21:31:49.281Z,0.90
2023-01-09T21:34:20.637Z,1.10
2023-01-09T21:36:48.818Z,0.83
2023-01-09T21:39:17.415Z,0.90
2023-01-09T21:42:04.654Z,1.03
2023-01-09T21:44:49.781Z,1.00
2023-01-09T21:47:17.568Z,0.90
2023-01-09T21:49:46.223Z,1.30
2023-01-09T21:52:15.347Z,0.70
2023-01-09T21:54:43.308Z,0.80
2023-01-09T21:57:13.192Z,0.80
2023-01-09T21:59:41.200Z,1.23
2023-01-09T22:02:12.725Z,0.80
2023-01-09T22:04:42.812Z,1.00
2023-01-09T22:07:11.132Z,0.80
2023-01-09T22:09:39.385Z,1.10
2023-01-09T22:12:07.905Z,0.80
2023-01-09T22:14:38.852Z,0.80
2023-01-09T22:17:07.559Z,1.00
2023-01-09T22:19:35.523Z,1.00
2023-01-09T22:22:07.276Z,1.27
2023-01-09T22:24:35.891Z,0.97
2023-01-09T22:27:04.033Z,1.10
2023-01-09T22:29:31.985Z,1.60
2023-01-09T22:32:01.366Z,0.80
2023-01-09T22:34:29.719Z,0.87
2023-01-09T22:36:57.966Z,1.07
2023-01-09T22:39:26.108Z,1.30
2023-01-09T22:41:55.238Z,1.20
2023-01-09T22:44:23.363Z,1.37
2023-01-09T22:46:51.262Z,1.10
2023-01-09T22:49:20.696Z,1.50
2023-01-09T22:51:48.609Z,1.27
2023-01-09T22:54:16.816Z,0.97
2023-01-09T22:56:44.769Z,1.03
2023-01-09T22:59:12.863Z,0.97
2023-01-09T23:01:40.990Z,1.40
2023-01-09T23:04:12.742Z,1.53
2023-01-09T23:06:42.217Z,1.00
2023-01-09T23:09:10.224Z,1.87
2023-01-09T23:11:55.672Z,1.50
2023-01-09T23:14:23.600Z,1.37
2023-01-09T23:16:51.586Z,1.47
2023-01-09T23:19:19.688Z,1.30
2023-01-09T23:21:48.994Z,2.07
2023-01-09T23:24:19.228Z,1.90
2023-01-09T23:26:47.669Z,2.30
2023-01-09T23:29:15.689Z,2.30
2023-01-09T23:31:43.767Z,1.50
2023-01-09T23:34:15.872Z,1.00
2023-01-09T23:36:43.927Z,1.10
2023-01-09T23:39:13.510Z,0.90
2023-01-09T23:41:59.972Z,1.33
2023-01-09T23:44:28.085Z,1.20
2023-01-09T23:46:56.229Z,1.00
2023-01-09T23:49:24.298Z,1.97
2023-01-09T23:51:52.411Z,1.50
2023-01-09T23:54:21.821Z,1.70
2023-01-09T23:56:49.719Z,1.20
2023-01-09T23:59:18.019Z,1.30
